Time;durP1;ratioP1;P1;durP2;ratioP2;P2;SDS_P1;SDS_P2;PMS_P1;PMS_P2;Temp;Humidity;BMP_temperature;BMP_pressure;BME280_temperature;BME280_humidity;BME280_pressure;Samples;Min_cycle;Max_cycle;Signal;HPM_P1;HPM_P2
2021/10/01 00:00:13;;;;;;;21.70;17.23;;;;;;;;;;5095996;28;20032;-72
2021/10/01 00:02:39;;;;;;;18.35;16.42;;;;;;;;;;5095147;28;20479;-73
2021/10/01 00:05:05;;;;;;;19.60;16.65;;;;;;;;;;5095192;28;20067;-72
2021/10/01 00:07:31;;;;;;;18.42;16.52;;;;;;;;;;5095787;28;20077;-72
2021/10/01 00:09:58;;;;;;;17.80;16.10;;;;;;;;;;5095604;28;20036;-72
2021/10/01 00:12:24;;;;;;;19.17;16.85;;;;;;;;;;5095520;28;20016;-72
2021/10/01 00:14:50;;;;;;;19.15;16.98;;;;;;;;;;5095590;28;20028;-72
2021/10/01 00:17:16;;;;;;;18.02;16.00;;;;;;;;;;5095436;28;20389;-73
2021/10/01 00:19:44;;;;;;;18.25;16.30;;;;;;;;;;5094923;28;20496;-72
2021/10/01 00:22:10;;;;;;;19.75;16.80;;;;;;;;;;5095631;28;20024;-72
2021/10/01 00:24:36;;;;;;;19.83;17.00;;;;;;;;;;5094858;28;20115;-72
2021/10/01 00:27:02;;;;;;;17.88;15.23;;;;;;;;;;5095295;28;20099;-72
2021/10/01 00:29:28;;;;;;;16.02;14.43;;;;;;;;;;5094874;28;20078;-72
2021/10/01 00:31:54;;;;;;;17.70;16.00;;;;;;;;;;5095262;28;20024;-73
2021/10/01 00:34:20;;;;;;;17.30;14.95;;;;;;;;;;5094335;28;20054;-73
2021/10/01 00:36:46;;;;;;;16.58;14.85;;;;;;;;;;5095553;28;20020;-72
2021/10/01 00:39:13;;;;;;;16.65;14.90;;;;;;;;;;5094848;28;20035;-72
2021/10/01 00:41:39;;;;;;;17.50;14.93;;;;;;;;;;5094080;28;20511;-72
2021/10/01 00:44:05;;;;;;;17.02;14.50;;;;;;;;;;5094606;28;20039;-72
2021/10/01 00:46:31;;;;;;;16.17;14.57;;;;;;;;;;5094258;28;20031;-72
2021/10/01 00:48:57;;;;;;;18.98;14.85;;;;;;;;;;5094587;28;20028;-72
2021/10/01 00:51:24;;;;;;;17.35;15.55;;;;;;;;;;5094924;28;20024;-72
2021/10/01 00:53:50;;;;;;;16.45;14.68;;;;;;;;;;5094998;28;20044;-72
2021/10/01 00:56:16;;;;;;;16.02;13.60;;;;;;;;;;5094370;28;20036;-73
2021/10/01 00:58:42;;;;;;;15.73;14.07;;;;;;;;;;5094436;28;20026;-72
2021/10/01 01:01:09;;;;;;;15.80;13.25;;;;;;;;;;5094522;28;20035;-72
2021/10/01 01:03:44;;;;;;;16.35;14.50;;;;;;;;;;5094783;28;20031;-72
2021/10/01 01:06:30;;;;;;;15.93;14.00;;;;;;;;;;5095011;28;20138;-72
2021/10/01 01:09:00;;;;;;;15.50;13.90;;;;;;;;;;5080077;28;20047;-72
2021/10/01 01:11:32;;;;;;;15.32;13.73;;;;;;;;;;5094215;28;20024;-72
2021/10/01 01:14:02;;;;;;;17.88;14.63;;;;;;;;;;5093974;28;20023;-72
2021/10/01 01:16:29;;;;;;;15.75;13.70;;;;;;;;;;5094326;28;20068;-72
2021/10/01 01:18:55;;;;;;;15.52;12.90;;;;;;;;;;5094401;28;20024;-72
2021/10/01 01:21:42;;;;;;;14.93;13.20;;;;;;;;;;5094198;28;20028;-72
2021/10/01 01:24:28;;;;;;;15.80;12.38;;;;;;;;;;5079307;28;20488;-72
2021/10/01 01:27:07;;;;;;;13.40;12.02;;;;;;;;;;5079432;28;20046;-72
2021/10/01 01:29:43;;;;;;;14.73;13.18;;;;;;;;;;5094167;28;20419;-72
2021/10/01 01:32:12;;;;;;;14.57;13.02;;;;;;;;;;5093744;28;20020;-73
2021/10/01 01:34:38;;;;;;;14.05;12.57;;;;;;;;;;5093975;28;20028;-73
2021/10/01 01:37:07;;;;;;;14.23;11.85;;;;;;;;;;5093806;28;20032;-72
2021/10/01 01:39:33;;;;;;;14.15;11.70;;;;;;;;;;5093394;28;20059;-72
2021/10/01 01:41:59;;;;;;;14.13;12.50;;;;;;;;;;5094087;28;20043;-72
2021/10/01 01:44:26;;;;;;;11.25;10.15;;;;;;;;;;5094225;28;20020;-72
2021/10/01 01:46:52;;;;;;;15.40;12.05;;;;;;;;;;5093896;28;20020;-72
2021/10/01 01:49:18;;;;;;;12.45;11.15;;;;;;;;;;5093386;28;20032;-73
2021/10/01 01:51:44;;;;;;;12.52;11.43;;;;;;;;;;5095048;28;20063;-72
2021/10/01 01:54:11;;;;;;;10.63;9.63;;;;;;;;;;5093877;28;20107;-72
2021/10/01 01:56:37;;;;;;;14.50;11.20;;;;;;;;;;5094206;28;20055;-72
2021/10/01 01:59:03;;;;;;;13.73;11.98;;;;;;;;;;5096649;28;20034;-73
2021/10/01 02:01:30;;;;;;;12.10;10.90;;;;;;;;;;5098055;28;20069;-72
2021/10/01 02:03:56;;;;;;;12.57;11.02;;;;;;;;;;5097668;28;20032;-72
2021/10/01 02:06:22;;;;;;;12.75;10.80;;;;;;;;;;5097709;28;20056;-72
2021/10/01 02:08:48;;;;;;;10.63;9.52;;;;;;;;;;5097812;28;20023;-72
2021/10/01 02:11:14;;;;;;;15.15;10.13;;;;;;;;;;5097716;28;20106;-72
2021/10/01 02:13:40;;;;;;;11.85;10.45;;;;;;;;;;5098022;28;20032;-73
2021/10/01 02:16:06;;;;;;;13.25;11.10;;;;;;;;;;5097642;28;20031;-72
2021/10/01 02:18:33;;;;;;;10.77;9.68;;;;;;;;;;5097255;28;20024;-73
2021/10/01 02:20:59;;;;;;;12.25;10.98;;;;;;;;;;5097526;28;20484;-73
2021/10/01 02:23:25;;;;;;;12.32;11.05;;;;;;;;;;5097333;28;20121;-72
2021/10/01 02:28:57;;;;;;;10.50;9.45;;;;;;;;;;5082396;28;20032;-72
2021/10/01 02:31:24;;;;;;;12.18;11.07;;;;;;;;;;5082096;28;20110;-72
2021/10/01 02:33:50;;;;;;;10.80;8.95;;;;;;;;;;5097329;28;20113;-72
2021/10/01 02:36:16;;;;;;;11.00;9.90;;;;;;;;;;5097167;28;20016;-75
2021/10/01 02:38:42;;;;;;;10.70;9.60;;;;;;;;;;5097555;28;20052;-73
2021/10/01 02:41:08;;;;;;;11.40;9.35;;;;;;;;;;5097303;28;20024;-72
2021/10/01 02:43:34;;;;;;;12.18;10.27;;;;;;;;;;5096910;28;20465;-72
2021/10/01 02:46:00;;;;;;;10.43;9.32;;;;;;;;;;5096495;28;20073;-73
2021/10/01 02:48:26;;;;;;;10.30;9.30;;;;;;;;;;5096932;28;20457;-73
2021/10/01 02:50:53;;;;;;;9.48;8.57;;;;;;;;;;5096347;28;20036;-72
2021/10/01 02:53:22;;;;;;;9.30;8.40;;;;;;;;;;5097169;28;20028;-74
2021/10/01 02:55:55;;;;;;;9.60;8.75;;;;;;;;;;5097203;28;20051;-73
2021/10/01 02:58:21;;;;;;;9.82;8.82;;;;;;;;;;5096522;28;20040;-73
2021/10/01 03:00:48;;;;;;;8.45;7.65;;;;;;;;;;5097505;28;20076;-73
2021/10/01 03:03:18;;;;;;;9.07;8.27;;;;;;;;;;5097074;28;20028;-72
2021/10/01 03:05:44;;;;;;;9.43;8.55;;;;;;;;;;5097022;28;20052;-73
2021/10/01 03:08:11;;;;;;;10.13;9.07;;;;;;;;;;5096741;28;20028;-73
2021/10/01 03:10:37;;;;;;;13.63;9.18;;;;;;;;;;5096197;28;20051;-73
2021/10/01 03:13:03;;;;;;;11.70;9.38;;;;;;;;;;5096475;28;20040;-73
2021/10/01 03:15:29;;;;;;;15.48;10.02;;;;;;;;;;5096805;28;20069;-73
2021/10/01 03:17:58;;;;;;;13.98;10.82;;;;;;;;;;5096577;28;20031;-72
2021/10/01 03:20:24;;;;;;;18.35;9.35;;;;;;;;;;5096422;28;20024;-72
2021/10/01 03:22:50;;;;;;;16.20;9.75;;;;;;;;;;5096416;28;20031;-72
2021/10/01 03:25:17;;;;;;;15.68;8.85;;;;;;;;;;5096439;28;20435;-72
2021/10/01 03:27:43;;;;;;;18.58;10.63;;;;;;;;;;5096330;28;20020;-73
2021/10/01 03:30:09;;;;;;;11.20;9.02;;;;;;;;;;5096027;28;20473;-72
2021/10/01 03:32:36;;;;;;;16.75;10.48;;;;;;;;;;5095455;28;20530;-72
2021/10/01 03:35:02;;;;;;;17.63;8.93;;;;;;;;;;5096077;28;20484;-72
2021/10/01 03:37:30;;;;;;;21.67;8.70;;;;;;;;;;5096444;28;20056;-72
2021/10/01 03:39:57;;;;;;;14.98;10.02;;;;;;;;;;5095852;28;20024;-72
2021/10/01 03:42:23;;;;;;;15.30;9.20;;;;;;;;;;5095620;28;20020;-73
2021/10/01 03:44:50;;;;;;;13.43;7.45;;;;;;;;;;5096154;28;20027;-72
2021/10/01 03:47:16;;;;;;;11.20;8.90;;;;;;;;;;5096113;28;20091;-72
2021/10/01 03:49:42;;;;;;;13.68;8.25;;;;;;;;;;5095307;28;20035;-72
2021/10/01 03:52:11;;;;;;;9.48;7.57;;;;;;;;;;5095920;28;20026;-72
2021/10/01 03:54:38;;;;;;;16.92;9.25;;;;;;;;;;5095609;28;20102;-73
2021/10/01 03:57:04;;;;;;;9.75;7.65;;;;;;;;;;5095330;28;20031;-73
2021/10/01 03:59:30;;;;;;;15.30;8.23;;;;;;;;;;5095720;28;20024;-73
2021/10/01 04:01:56;;;;;;;13.13;7.88;;;;;;;;;;5095786;28;20032;-73
2021/10/01 04:04:23;;;;;;;8.75;7.47;;;;;;;;;;5095219;28;20024;-72
2021/10/01 04:06:49;;;;;;;12.00;7.82;;;;;;;;;;5096062;28;20378;-72
2021/10/01 04:09:15;;;;;;;11.88;7.60;;;;;;;;;;5095140;28;20032;-72
2021/10/01 04:11:41;;;;;;;9.02;8.10;;;;;;;;;;5095433;28;20437;-73
2021/10/01 04:14:07;;;;;;;8.35;6.85;;;;;;;;;;5095539;28;20077;-73
2021/10/01 04:16:33;;;;;;;8.38;7.43;;;;;;;;;;5095253;28;20020;-73
2021/10/01 04:18:59;;;;;;;8.07;7.28;;;;;;;;;;5095420;28;20347;-72
2021/10/01 04:21:26;;;;;;;9.90;7.80;;;;;;;;;;5094835;28;20023;-72
2021/10/01 04:23:52;;;;;;;7.13;6.43;;;;;;;;;;5095622;28;20020;-72
2021/10/01 04:26:18;;;;;;;14.00;6.95;;;;;;;;;;5095147;28;20021;-73
2021/10/01 04:28:44;;;;;;;7.20;6.50;;;;;;;;;;5095128;28;20027;-73
2021/10/01 04:31:10;;;;;;;9.10;6.88;;;;;;;;;;5095222;28;20133;-73
2021/10/01 04:33:40;;;;;;;7.55;6.35;;;;;;;;;;5095295;28;20020;-72
2021/10/01 04:36:06;;;;;;;7.07;6.28;;;;;;;;;;5095467;28;20021;-72
2021/10/01 04:38:32;;;;;;;7.63;6.63;;;;;;;;;;5091609;28;20048;-73
2021/10/01 04:40:58;;;;;;;8.20;5.63;;;;;;;;;;5074159;28;20036;-72
2021/10/01 04:43:24;;;;;;;9.35;6.72;;;;;;;;;;5074615;28;20044;-72
2021/10/01 04:45:50;;;;;;;5.95;5.35;;;;;;;;;;5074872;28;20025;-72
2021/10/01 04:48:16;;;;;;;6.07;4.47;;;;;;;;;;5074147;28;20026;-72
2021/10/01 04:50:42;;;;;;;34.05;6.65;;;;;;;;;;5074353;28;20523;-73
2021/10/01 04:53:08;;;;;;;8.57;6.30;;;;;;;;;;5074828;28;20461;-72
2021/10/01 04:55:34;;;;;;;7.82;5.25;;;;;;;;;;5074218;28;20024;-73
2021/10/01 04:58:01;;;;;;;6.22;5.63;;;;;;;;;;5074345;28;20024;-72
2021/10/01 05:00:27;;;;;;;10.82;5.53;;;;;;;;;;5074368;28;20069;-72
2021/10/01 05:02:53;;;;;;;6.63;5.80;;;;;;;;;;5073944;28;20378;-73
2021/10/01 05:05:19;;;;;;;19.60;7.03;;;;;;;;;;5074686;28;20048;-72
2021/10/01 05:07:46;;;;;;;14.05;5.95;;;;;;;;;;5073925;28;20532;-73
2021/10/01 05:10:12;;;;;;;6.80;5.30;;;;;;;;;;5073902;28;20060;-72
2021/10/01 05:12:38;;;;;;;11.00;5.10;;;;;;;;;;5073964;28;20082;-72
2021/10/01 05:15:05;;;;;;;12.15;5.70;;;;;;;;;;5074258;28;20025;-72
2021/10/01 05:17:33;;;;;;;9.60;5.93;;;;;;;;;;5074342;28;20064;-72
2021/10/01 05:19:59;;;;;;;5.88;5.13;;;;;;;;;;5073821;28;20482;-73
2021/10/01 05:22:25;;;;;;;13.35;5.30;;;;;;;;;;5074026;28;20542;-72
2021/10/01 05:24:51;;;;;;;35.08;6.38;;;;;;;;;;5073602;28;20028;-72
2021/10/01 05:27:18;;;;;;;6.07;5.47;;;;;;;;;;5074151;28;20028;-72
2021/10/01 05:29:44;;;;;;;21.48;5.25;;;;;;;;;;5073902;28;20545;-72
2021/10/01 05:32:10;;;;;;;21.58;7.32;;;;;;;;;;5073716;28;20067;-72
2021/10/01 05:34:37;;;;;;;11.10;5.97;;;;;;;;;;5073689;28;20442;-73
2021/10/01 05:37:03;;;;;;;19.55;5.05;;;;;;;;;;5073608;28;20020;-71
2021/10/01 05:39:29;;;;;;;5.75;4.60;;;;;;;;;;5073624;28;20382;-73
2021/10/01 05:41:56;;;;;;;7.68;5.68;;;;;;;;;;5074069;28;20025;-76
2021/10/01 05:44:22;;;;;;;6.10;5.30;;;;;;;;;;5073443;28;20028;-74
2021/10/01 05:46:48;;;;;;;9.75;6.03;;;;;;;;;;5074080;28;20070;-71
2021/10/01 05:49:48;;;;;;;6.30;5.05;;;;;;;;;;5073383;28;20028;-74
2021/10/01 05:52:13;;;;;;;7.72;4.63;;;;;;;;;;5058374;28;20036;-74
2021/10/01 05:54:39;;;;;;;7.45;5.03;;;;;;;;;;5073939;28;20051;-74
2021/10/01 05:57:05;;;;;;;6.90;6.00;;;;;;;;;;5073330;28;20532;-76
2021/10/01 05:59:31;;;;;;;5.15;4.45;;;;;;;;;;5073737;28;20082;-76
2021/10/01 06:01:57;;;;;;;8.80;5.57;;;;;;;;;;5073918;28;20063;-76
2021/10/01 06:04:24;;;;;;;9.45;5.50;;;;;;;;;;5073171;28;20557;-79
2021/10/01 06:06:51;;;;;;;5.50;4.90;;;;;;;;;;5073561;28;20189;-76
2021/10/01 06:09:19;;;;;;;8.23;5.22;;;;;;;;;;5073551;28;20028;-76
2021/10/01 06:11:45;;;;;;;8.25;5.32;;;;;;;;;;5073706;28;20021;-75
2021/10/01 06:14:12;;;;;;;6.88;6.13;;;;;;;;;;5073243;28;20367;-76
2021/10/01 06:16:38;;;;;;;6.72;5.28;;;;;;;;;;5073105;28;20052;-76
2021/10/01 06:19:04;;;;;;;5.88;5.28;;;;;;;;;;5073313;28;20038;-78
2021/10/01 06:21:30;;;;;;;9.20;5.13;;;;;;;;;;5073590;28;20080;-76
2021/10/01 06:23:56;;;;;;;6.47;4.63;;;;;;;;;;5073468;28;20028;-76
2021/10/01 06:26:22;;;;;;;5.35;4.53;;;;;;;;;;5073258;28;20021;-75
2021/10/01 06:28:48;;;;;;;5.75;5.15;;;;;;;;;;5073025;28;20016;-76
2021/10/01 06:31:14;;;;;;;5.85;4.80;;;;;;;;;;5073164;28;20116;-75
2021/10/01 06:33:41;;;;;;;5.75;5.25;;;;;;;;;;5072698;28;20490;-75
2021/10/01 06:36:07;;;;;;;5.38;4.85;;;;;;;;;;5073184;28;20035;-76
2021/10/01 06:38:34;;;;;;;6.30;5.32;;;;;;;;;;5073176;28;20029;-76
2021/10/01 06:41:00;;;;;;;14.45;6.38;;;;;;;;;;5073880;28;20029;-75
2021/10/01 06:43:26;;;;;;;11.55;7.55;;;;;;;;;;5073326;28;20017;-75
2021/10/01 06:45:55;;;;;;;27.27;13.10;;;;;;;;;;5076827;28;20480;-75
2021/10/01 06:48:46;;;;;;;40.00;27.70;;;;;;;;;;5076553;28;20039;-75
2021/10/01 07:29:28;;;;;;;14.60;12.00;;;;;;;;;;5064158;28;20028;-79
2021/10/01 08:19:43;;;;;;;9.80;8.57;;;;;;;;;;5083157;28;20035;-72
2021/10/01 08:22:10;;;;;;;11.82;8.65;;;;;;;;;;5097706;28;20051;-74
2021/10/01 08:24:36;;;;;;;8.60;7.05;;;;;;;;;;5097550;28;20038;-72
2021/10/01 08:27:03;;;;;;;10.73;6.63;;;;;;;;;;5091542;28;20035;-73
2021/10/01 08:29:29;;;;;;;15.43;7.78;;;;;;;;;;5077587;28;20028;-73
2021/10/01 08:32:02;;;;;;;9.43;8.20;;;;;;;;;;5077991;28;20039;-72
2021/10/01 08:34:29;;;;;;;8.10;6.72;;;;;;;;;;5077159;28;20027;-73
2021/10/01 08:36:55;;;;;;;10.85;7.47;;;;;;;;;;5075100;28;20046;-72
2021/10/01 08:39:21;;;;;;;11.98;8.25;;;;;;;;;;5097402;28;20031;-71
2021/10/01 08:41:47;;;;;;;33.67;8.32;;;;;;;;;;5097797;28;20024;-76
2021/10/01 08:44:13;;;;;;;8.20;6.88;;;;;;;;;;5098652;28;20178;-76
2021/10/01 08:46:40;;;;;;;12.90;8.23;;;;;;;;;;5097673;28;20118;-73
2021/10/01 08:49:08;;;;;;;12.00;6.63;;;;;;;;;;5097632;28;20060;-73
2021/10/01 08:51:34;;;;;;;7.55;6.75;;;;;;;;;;5097858;28;20469;-75
2021/10/01 08:54:00;;;;;;;7.15;6.43;;;;;;;;;;5097823;28;20077;-74
2021/10/01 08:56:26;;;;;;;11.13;6.30;;;;;;;;;;5097696;28;20047;-76
2021/10/01 08:58:52;;;;;;;7.57;6.88;;;;;;;;;;5097006;28;20020;-77
2021/10/01 09:01:19;;;;;;;9.02;6.45;;;;;;;;;;5097789;28;20346;-78
2021/10/01 09:03:45;;;;;;;11.10;6.63;;;;;;;;;;5097931;28;20024;-77
2021/10/01 09:06:11;;;;;;;8.32;6.20;;;;;;;;;;5097980;28;20080;-75
2021/10/01 09:08:53;;;;;;;9.57;8.32;;;;;;;;;;5096508;28;20113;-77
2021/10/01 09:11:19;;;;;;;;;;;;;;;;;;5098159;28;20036;-76
2021/10/01 09:13:45;;;;;;;14.93;11.07;;;;;;;;;;5097361;28;19904;-78
2021/10/01 09:16:12;;;;;;;26.23;14.27;;;;;;;;;;5097736;28;20445;-75
2021/10/01 09:18:39;;;;;;;16.55;11.90;;;;;;;;;;5097206;28;20031;-76
2021/10/01 09:21:08;;;;;;;26.75;15.40;;;;;;;;;;5097487;28;20489;-74
2021/10/01 09:23:40;;;;;;;14.60;11.98;;;;;;;;;;5097451;28;20020;-74
2021/10/01 09:26:08;;;;;;;24.55;17.25;;;;;;;;;;5097699;28;20069;-74
2021/10/01 09:28:54;;;;;;;18.33;14.07;;;;;;;;;;5097405;28;20020;-75
2021/10/01 09:31:40;;;;;;;23.08;16.52;;;;;;;;;;5082153;28;20046;-75
2021/10/01 09:34:07;;;;;;;22.63;13.88;;;;;;;;;;5082451;28;20024;-74
2021/10/01 09:36:33;;;;;;;22.40;14.82;;;;;;;;;;5097069;28;20359;-74
2021/10/01 09:39:00;;;;;;;24.80;13.63;;;;;;;;;;5097076;28;20055;-76
2021/10/01 09:41:28;;;;;;;22.15;12.93;;;;;;;;;;5096783;28;20020;-77
2021/10/01 09:44:03;;;;;;;21.55;15.02;;;;;;;;;;5097137;28;20071;-75
2021/10/01 09:46:37;;;;;;;16.08;11.63;;;;;;;;;;5097575;28;20028;-75
2021/10/01 09:49:05;;;;;;;18.80;12.80;;;;;;;;;;5097175;28;20035;-74
2021/10/01 09:51:31;;;;;;;16.85;11.65;;;;;;;;;;5096201;28;20147;-74
2021/10/01 09:53:57;;;;;;;17.52;12.07;;;;;;;;;;5097078;28;20028;-74
2021/10/01 09:56:26;;;;;;;22.48;13.80;;;;;;;;;;5096671;28;20031;-75
2021/10/01 09:59:12;;;;;;;16.38;10.43;;;;;;;;;;5097240;28;20024;-76
2021/10/01 10:01:58;;;;;;;19.60;12.18;;;;;;;;;;5081665;28;20027;-76
2021/10/01 10:04:24;;;;;;;20.50;11.57;;;;;;;;;;5082259;28;20029;-76
2021/10/01 10:06:50;;;;;;;18.20;10.60;;;;;;;;;;5096709;28;20563;-76
2021/10/01 10:09:16;;;;;;;16.83;10.25;;;;;;;;;;5097101;28;20024;-75
2021/10/01 10:11:42;;;;;;;19.73;12.23;;;;;;;;;;5096580;28;20024;-72
2021/10/01 10:14:09;;;;;;;18.23;10.93;;;;;;;;;;5097225;28;20024;-73
2021/10/01 10:16:35;;;;;;;14.20;11.07;;;;;;;;;;5096536;28;20481;-75
2021/10/01 10:19:03;;;;;;;9.85;7.95;;;;;;;;;;5097810;28;20063;-74
2021/10/01 10:21:29;;;;;;;12.45;8.00;;;;;;;;;;5100432;28;20027;-76
2021/10/01 10:23:56;;;;;;;22.98;10.07;;;;;;;;;;5100342;28;20114;-77
2021/10/01 10:26:22;;;;;;;11.48;7.65;;;;;;;;;;5100690;28;20088;-75
2021/10/01 10:28:48;;;;;;;17.67;8.57;;;;;;;;;;5100141;28;20020;-74
2021/10/01 10:31:14;;;;;;;11.63;7.43;;;;;;;;;;5100670;28;20040;-76
2021/10/01 10:33:43;;;;;;;14.23;7.10;;;;;;;;;;5100295;28;20069;-81
2021/10/01 10:36:28;;;;;;;10.18;7.25;;;;;;;;;;5100550;28;20062;-75
2021/10/01 10:42:27;;;;;;;9.43;7.38;;;;;;;;;;5069902;28;20090;-76
2021/10/01 10:44:54;;;;;;;11.20;7.28;;;;;;;;;;5077494;28;20020;-76
2021/10/01 10:47:40;;;;;;;10.02;6.32;;;;;;;;;;5078323;28;20059;-74
2021/10/01 10:50:27;;;;;;;7.35;6.63;;;;;;;;;;5078469;28;20037;-76
2021/10/01 10:53:14;;;;;;;8.73;6.20;;;;;;;;;;5077462;28;20416;-76
2021/10/01 10:55:43;;;;;;;19.35;7.15;;;;;;;;;;5063197;28;20025;-77
2021/10/01 10:58:31;;;;;;;6.57;5.85;;;;;;;;;;5078215;28;20031;-78
2021/10/01 11:01:01;;;;;;;6.80;6.10;;;;;;;;;;5065142;28;20028;-77
2021/10/01 11:03:29;;;;;;;8.65;6.68;;;;;;;;;;5079083;28;20025;-76
2021/10/01 11:06:14;;;;;;;12.45;6.88;;;;;;;;;;5079037;28;20059;-73
2021/10/01 11:08:42;;;;;;;10.07;6.20;;;;;;;;;;5079281;28;20402;-73
2021/10/01 11:11:28;;;;;;;10.77;6.72;;;;;;;;;;5079373;28;20040;-73
2021/10/01 11:14:14;;;;;;;8.23;5.30;;;;;;;;;;5063752;28;20107;-75
2021/10/01 11:16:40;;;;;;;11.88;6.28;;;;;;;;;;5064358;28;20462;-76
2021/10/01 11:19:09;;;;;;;8.05;6.13;;;;;;;;;;5080283;28;20080;-75
2021/10/01 11:21:36;;;;;;;8.27;5.88;;;;;;;;;;5079583;28;20016;-76
2021/10/01 11:24:08;;;;;;;11.68;7.38;;;;;;;;;;5077861;28;20029;-76
2021/10/01 11:26:34;;;;;;;;;;;;;;;;;;5076013;28;20421;-76
2021/10/01 11:29:00;;;;;;;7.43;5.60;;;;;;;;;;5075952;28;19908;-75
2021/10/01 11:31:41;;;;;;;8.07;5.68;;;;;;;;;;5076046;28;20040;-74
2021/10/01 11:34:08;;;;;;;9.45;5.60;;;;;;;;;;5076354;28;20024;-75
2021/10/01 11:36:36;;;;;;;16.88;7.97;;;;;;;;;;5075722;28;20040;-73
2021/10/01 11:39:04;;;;;;;7.70;6.03;;;;;;;;;;5075841;28;20158;-74
2021/10/01 11:41:30;;;;;;;8.35;5.63;;;;;;;;;;5077710;28;20032;-74
2021/10/01 11:43:56;;;;;;;7.45;6.13;;;;;;;;;;5080087;28;20078;-74
2021/10/01 11:46:24;;;;;;;7.10;5.28;;;;;;;;;;5079081;28;20023;-75
2021/10/01 11:48:50;;;;;;;6.82;5.82;;;;;;;;;;5079700;28;20044;-75
2021/10/01 11:51:17;;;;;;;7.35;5.40;;;;;;;;;;5084356;28;20029;-74
2021/10/01 11:53:43;;;;;;;7.78;5.68;;;;;;;;;;5082129;28;20034;-76
2021/10/01 11:56:09;;;;;;;8.95;5.28;;;;;;;;;;5079233;28;20665;-76
2021/10/01 11:58:36;;;;;;;7.45;4.70;;;;;;;;;;5081740;28;20070;-75
2021/10/01 12:01:18;;;;;;;9.38;6.25;;;;;;;;;;5080218;28;20108;-76
2021/10/01 12:03:52;;;;;;;8.13;5.60;;;;;;;;;;5074498;28;20078;-76
2021/10/01 12:06:20;;;;;;;6.45;5.35;;;;;;;;;;5079604;28;20560;-74
2021/10/01 12:08:54;;;;;;;8.65;5.07;;;;;;;;;;5077200;28;20027;-73
2021/10/01 12:11:25;;;;;;;10.65;6.07;;;;;;;;;;5076135;28;20729;-75
2021/10/01 12:13:51;;;;;;;5.32;4.80;;;;;;;;;;5079320;28;20392;-75
2021/10/01 12:16:17;;;;;;;5.72;5.10;;;;;;;;;;5076459;28;20055;-77
2021/10/01 12:18:45;;;;;;;6.07;4.93;;;;;;;;;;5073263;28;20047;-74
2021/10/01 12:21:12;;;;;;;8.30;4.97;;;;;;;;;;5073874;28;20086;-75
2021/10/01 12:23:40;;;;;;;5.20;4.43;;;;;;;;;;5078888;28;20417;-74
2021/10/01 12:26:26;;;;;;;4.60;4.18;;;;;;;;;;5080245;28;20382;-74
2021/10/01 12:29:12;;;;;;;4.40;4.00;;;;;;;;;;5057533;28;20029;-75
2021/10/01 12:31:39;;;;;;;5.78;5.28;;;;;;;;;;5058970;28;20033;-74
2021/10/01 12:34:06;;;;;;;4.90;4.25;;;;;;;;;;5075068;28;20099;-78
2021/10/01 12:36:32;;;;;;;11.27;4.72;;;;;;;;;;5074445;28;20031;-76
2021/10/01 12:38:58;;;;;;;7.60;4.88;;;;;;;;;;5074576;28;20051;-76
2021/10/01 12:41:24;;;;;;;7.95;6.80;;;;;;;;;;5074065;28;20111;-76
2021/10/01 12:43:52;;;;;;;5.55;4.38;;;;;;;;;;5074233;28;20047;-79
2021/10/01 12:46:38;;;;;;;4.63;4.05;;;;;;;;;;5074048;28;20020;-83
2021/10/01 12:49:20;;;;;;;5.10;4.38;;;;;;;;;;5060347;28;20028;-78
2021/10/01 12:52:06;;;;;;;5.07;4.38;;;;;;;;;;5074565;28;20033;-79
2021/10/01 12:54:34;;;;;;;7.28;5.20;;;;;;;;;;5059433;28;20021;-79
2021/10/01 12:57:20;;;;;;;6.18;4.50;;;;;;;;;;5074309;28;20020;-80
2021/10/01 12:59:49;;;;;;;4.82;4.10;;;;;;;;;;5059696;28;20029;-80
2021/10/01 13:02:17;;;;;;;4.88;4.38;;;;;;;;;;5074314;28;20107;-81
2021/10/01 13:04:44;;;;;;;4.97;3.85;;;;;;;;;;5073672;28;20029;-79
2021/10/01 13:07:30;;;;;;;7.18;4.53;;;;;;;;;;5074647;28;20024;-80
2021/10/01 13:09:57;;;;;;;4.28;3.80;;;;;;;;;;5059029;28;20032;-79
2021/10/01 13:12:27;;;;;;;3.50;3.20;;;;;;;;;;5073975;28;20082;-77
2021/10/01 13:15:09;;;;;;;4.88;3.67;;;;;;;;;;5074136;28;20033;-80
2021/10/01 13:17:35;;;;;;;5.28;3.55;;;;;;;;;;5073775;28;20016;-79
2021/10/01 13:20:01;;;;;;;4.22;3.45;;;;;;;;;;5073748;28;20052;-83
2021/10/01 13:22:47;;;;;;;4.80;4.28;;;;;;;;;;5073604;28;20078;-78
2021/10/01 13:25:13;;;;;;;7.38;4.25;;;;;;;;;;5058962;28;20440;-76
2021/10/01 13:27:39;;;;;;;4.90;4.15;;;;;;;;;;5073458;28;20474;-74
2021/10/01 13:30:06;;;;;;;4.05;3.70;;;;;;;;;;5074075;28;20036;-75
2021/10/01 13:32:32;;;;;;;3.85;3.45;;;;;;;;;;5073813;28;20044;-75
2021/10/01 13:34:58;;;;;;;8.82;4.57;;;;;;;;;;5073899;28;20025;-77
2021/10/01 13:37:24;;;;;;;9.55;5.10;;;;;;;;;;5073485;28;20028;-78
2021/10/01 13:39:50;;;;;;;5.43;3.80;;;;;;;;;;5074016;28;20025;-74
2021/10/01 13:42:16;;;;;;;5.65;3.70;;;;;;;;;;5073455;28;20029;-76
2021/10/01 13:44:42;;;;;;;3.97;3.15;;;;;;;;;;5073722;28;20355;-75
2021/10/01 13:47:08;;;;;;;4.93;3.67;;;;;;;;;;5073869;28;20086;-75
2021/10/01 13:49:34;;;;;;;5.13;4.57;;;;;;;;;;5073190;28;20039;-75
2021/10/01 13:52:00;;;;;;;4.50;4.10;;;;;;;;;;5073836;28;20070;-75
2021/10/01 13:54:26;;;;;;;4.97;4.32;;;;;;;;;;5075164;28;20028;-75
2021/10/01 13:56:52;;;;;;;4.63;3.72;;;;;;;;;;5077714;28;20016;-75
2021/10/01 13:59:18;;;;;;;4.28;3.88;;;;;;;;;;5078211;28;20474;-79
2021/10/01 14:01:44;;;;;;;5.50;4.70;;;;;;;;;;5077529;28;20111;-74
2021/10/01 14:04:10;;;;;;;6.60;4.13;;;;;;;;;;5077617;28;20031;-74
2021/10/01 14:06:37;;;;;;;4.47;4.07;;;;;;;;;;5077754;28;20056;-74
2021/10/01 14:09:03;;;;;;;15.80;3.80;;;;;;;;;;5077499;28;20029;-74
2021/10/01 14:11:29;;;;;;;5.75;4.35;;;;;;;;;;5077064;28;20536;-73
2021/10/01 14:13:56;;;;;;;4.45;3.95;;;;;;;;;;5077039;28;20385;-74
2021/10/01 14:16:22;;;;;;;4.05;3.75;;;;;;;;;;5077510;28;20025;-75
2021/10/01 14:18:48;;;;;;;4.82;3.80;;;;;;;;;;5077185;28;20035;-75
2021/10/01 14:21:14;;;;;;;6.93;4.22;;;;;;;;;;5077406;28;20036;-74
2021/10/01 14:23:40;;;;;;;3.95;3.63;;;;;;;;;;5077017;28;20048;-77
2021/10/01 14:26:06;;;;;;;13.45;3.55;;;;;;;;;;5073625;28;20017;-76
2021/10/01 14:28:32;;;;;;;5.07;3.85;;;;;;;;;;5079149;28;20389;-74
2021/10/01 14:30:58;;;;;;;5.93;3.80;;;;;;;;;;5080659;28;20062;-77
2021/10/01 14:33:24;;;;;;;3.92;3.45;;;;;;;;;;5081034;28;20028;-76
2021/10/01 14:35:52;;;;;;;4.30;3.90;;;;;;;;;;5080346;28;20027;-73
2021/10/01 14:38:18;;;;;;;6.63;4.38;;;;;;;;;;5076706;28;20501;-74
2021/10/01 14:40:45;;;;;;;3.67;3.13;;;;;;;;;;5084990;28;20024;-74
2021/10/01 14:43:11;;;;;;;6.05;4.68;;;;;;;;;;5082093;28;20073;-77
2021/10/01 14:45:37;;;;;;;10.65;6.78;;;;;;;;;;5079540;28;20020;-72
2021/10/01 14:48:03;;;;;;;4.47;4.07;;;;;;;;;;5079994;28;20482;-78
2021/10/01 14:50:29;;;;;;;4.85;4.45;;;;;;;;;;5080586;28;20032;-75
2021/10/01 14:52:55;;;;;;;4.93;3.65;;;;;;;;;;5079834;28;20119;-78
2021/10/01 14:55:22;;;;;;;13.00;3.83;;;;;;;;;;5078078;28;20021;-78
2021/10/01 14:57:49;;;;;;;4.97;4.13;;;;;;;;;;5079798;28;20525;-74
2021/10/01 15:00:15;;;;;;;3.13;2.83;;;;;;;;;;5079596;28;20020;-75
2021/10/01 15:02:41;;;;;;;4.30;2.83;;;;;;;;;;5079726;28;20033;-76
2021/10/01 15:05:08;;;;;;;8.07;3.22;;;;;;;;;;5081310;28;20054;-74
2021/10/01 15:07:34;;;;;;;4.70;3.53;;;;;;;;;;5083300;28;20021;-74
2021/10/01 15:10:00;;;;;;;12.18;3.10;;;;;;;;;;5081677;28;20039;-76
2021/10/01 15:12:26;;;;;;;3.88;3.47;;;;;;;;;;5079250;28;20024;-75
2021/10/01 15:14:52;;;;;;;6.75;4.93;;;;;;;;;;5079780;28;20032;-75
2021/10/01 15:17:19;;;;;;;7.82;4.40;;;;;;;;;;5080061;28;20020;-77
2021/10/01 15:19:45;;;;;;;8.13;4.32;;;;;;;;;;5077743;28;20024;-75
2021/10/01 15:22:11;;;;;;;5.63;4.07;;;;;;;;;;5078542;28;20028;-75
2021/10/01 15:24:37;;;;;;;3.85;3.45;;;;;;;;;;5078832;28;20025;-78
2021/10/01 15:27:03;;;;;;;9.02;7.43;;;;;;;;;;5078607;28;20032;-78
2021/10/01 15:29:30;;;;;;;4.97;3.70;;;;;;;;;;5078906;28;20478;-77
2021/10/01 15:31:56;;;;;;;4.78;4.10;;;;;;;;;;5078545;28;20036;-73
2021/10/01 15:34:23;;;;;;;5.78;4.05;;;;;;;;;;5077695;28;20024;-76
2021/10/01 15:36:51;;;;;;;6.97;5.07;;;;;;;;;;5077875;28;20359;-77
2021/10/01 15:39:17;;;;;;;10.85;4.47;;;;;;;;;;5076762;28;20020;-77
2021/10/01 15:41:43;;;;;;;9.10;8.23;;;;;;;;;;5091564;28;20024;-79
2021/10/01 15:44:09;;;;;;;5.70;5.20;;;;;;;;;;5099927;28;20470;-74
2021/10/01 15:46:36;;;;;;;5.68;4.95;;;;;;;;;;5099842;28;20027;-77
2021/10/01 15:49:02;;;;;;;9.77;5.20;;;;;;;;;;5100090;28;20423;-75
2021/10/01 15:51:28;;;;;;;5.25;4.75;;;;;;;;;;5094752;28;20096;-75
2021/10/01 15:53:54;;;;;;;8.60;4.55;;;;;;;;;;5100013;28;20032;-72
2021/10/01 15:56:23;;;;;;;9.20;6.32;;;;;;;;;;5098882;28;20020;-73
2021/10/01 15:58:49;;;;;;;8.50;7.05;;;;;;;;;;5098757;28;20366;-72
2021/10/01 16:01:16;;;;;;;9.77;8.30;;;;;;;;;;5087369;28;20032;-74
2021/10/01 16:03:43;;;;;;;12.55;6.70;;;;;;;;;;5078843;28;20024;-72
2021/10/01 16:06:09;;;;;;;8.60;7.78;;;;;;;;;;5078438;28;20052;-73
2021/10/01 16:08:35;;;;;;;14.32;9.65;;;;;;;;;;5085091;28;20024;-73
2021/10/01 16:11:01;;;;;;;9.00;7.82;;;;;;;;;;5088469;28;20448;-74